createdAt,value
2019-03-30T00:00:44.349Z,78.52
2019-03-30T00:03:14.669Z,79.72
2019-03-30T00:05:45.019Z,80.28
2019-03-30T00:08:15.322Z,90.62
2019-03-30T00:10:45.628Z,92.55
2019-03-30T00:13:16.000Z,89.67
2019-03-30T00:15:48.302Z,83.30
2019-03-30T00:18:19.927Z,81.97
2019-03-30T00:20:50.259Z,80.90
2019-03-30T00:23:27.268Z,80.85
2019-03-30T00:25:57.610Z,78.60
2019-03-30T00:28:31.500Z,80.15
2019-03-30T00:31:01.862Z,84.70
2019-03-30T00:33:35.520Z,81.85
2019-03-30T00:38:50.801Z,78.65
2019-03-30T00:41:21.961Z,80.72
2019-03-30T00:43:52.195Z,80.25
2019-03-30T00:46:22.647Z,79.00
2019-03-30T00:48:53.001Z,78.05
2019-03-30T00:51:23.263Z,81.72
2019-03-30T00:53:54.991Z,85.28
2019-03-30T00:56:25.460Z,82.27
2019-03-30T00:58:56.107Z,80.90
2019-03-30T01:01:29.099Z,83.70
2019-03-30T01:04:03.906Z,84.07
2019-03-30T01:06:34.220Z,83.07
2019-03-30T01:09:06.212Z,83.42
2019-03-30T01:11:36.674Z,84.42
2019-03-30T01:14:07.137Z,88.17
2019-03-30T01:16:43.688Z,87.85
2019-03-30T01:19:14.060Z,87.10
2019-03-30T01:21:44.999Z,87.78
2019-03-30T01:24:15.315Z,86.85
2019-03-30T01:27:02.432Z,86.75
2019-03-30T01:29:29.330Z,86.75
2019-03-30T01:34:57.855Z,87.70
2019-03-30T01:37:29.163Z,86.12
2019-03-30T01:39:59.435Z,83.72
2019-03-30T01:42:29.760Z,83.42
2019-03-30T01:45:00.047Z,82.85
2019-03-30T01:47:30.428Z,83.78
2019-03-30T01:50:16.183Z,82.45
2019-03-30T01:52:46.332Z,81.22
2019-03-30T01:55:16.713Z,80.60
2019-03-30T01:57:48.578Z,81.87
2019-03-30T02:00:22.938Z,79.65
2019-03-30T02:02:53.299Z,81.05
2019-03-30T02:05:23.630Z,80.10
2019-03-30T02:07:53.950Z,80.57
2019-03-30T02:10:35.504Z,79.05
2019-03-30T02:13:11.936Z,78.22
2019-03-30T02:18:32.887Z,82.70
2019-03-30T02:21:03.318Z,79.87
2019-03-30T02:23:44.588Z,81.30
2019-03-30T02:26:14.892Z,82.60
2019-03-30T02:28:51.076Z,84.35
2019-03-30T02:31:27.725Z,85.67
2019-03-30T02:34:09.822Z,84.70
2019-03-30T02:36:48.983Z,84.37
2019-03-30T02:39:19.181Z,86.82
2019-03-30T02:41:53.009Z,91.85
2019-03-30T02:44:29.241Z,89.37
2019-03-30T02:47:13.043Z,97.05
2019-03-30T02:49:43.366Z,95.47
2019-03-30T02:52:19.509Z,98.62
2019-03-30T02:54:51.723Z,99.97
2019-03-30T02:57:22.102Z,97.02
2019-03-30T02:59:52.400Z,100.45
2019-03-30T03:02:23.941Z,104.40
2019-03-30T03:04:54.253Z,103.53
2019-03-30T03:07:31.527Z,105.63
2019-03-30T03:10:01.837Z,109.48
2019-03-30T03:12:34.671Z,105.05
2019-03-30T03:15:06.687Z,106.63
2019-03-30T03:17:37.087Z,100.40
2019-03-30T03:20:13.177Z,100.47
2019-03-30T03:22:48.095Z,99.17
2019-03-30T03:25:18.274Z,99.10
2019-03-30T03:27:48.534Z,100.07
2019-03-30T03:30:19.126Z,97.10
2019-03-30T03:32:52.421Z,98.40
2019-03-30T03:35:22.698Z,100.50
2019-03-30T03:38:12.247Z,96.72
2019-03-30T03:40:43.551Z,97.60
2019-03-30T03:43:25.377Z,101.27
2019-03-30T03:45:55.576Z,95.42
2019-03-30T03:48:32.113Z,97.10
2019-03-30T03:51:25.007Z,99.40
2019-03-30T03:53:50.593Z,101.87
2019-03-30T03:56:31.144Z,98.47
2019-03-30T03:59:02.942Z,99.72
2019-03-30T04:01:35.424Z,101.47
2019-03-30T04:04:14.557Z,99.92
2019-03-30T04:06:47.129Z,98.52
2019-03-30T04:09:20.665Z,95.55
2019-03-30T04:11:53.092Z,98.03
2019-03-30T04:14:32.521Z,98.35
2019-03-30T04:17:03.193Z,95.80
2019-03-30T04:19:35.081Z,96.10
2019-03-30T04:22:13.514Z,93.55
2019-03-30T04:24:53.324Z,94.80
2019-03-30T04:27:34.491Z,98.27
2019-03-30T04:30:12.311Z,96.05
2019-03-30T04:32:42.511Z,93.03
2019-03-30T04:35:23.319Z,98.50
2019-03-30T04:37:56.796Z,96.37
2019-03-30T04:43:15.539Z,97.80
2019-03-30T04:45:58.623Z,98.27
2019-03-30T04:52:06.879Z,97.00
2019-03-30T04:54:37.204Z,96.17
2019-03-30T04:57:16.357Z,97.70
2019-03-30T04:59:55.483Z,97.78
2019-03-30T05:02:27.242Z,93.85
2019-03-30T05:04:57.577Z,97.17
2019-03-30T05:07:33.660Z,98.65
2019-03-30T05:10:24.757Z,95.28
2019-03-30T05:13:09.597Z,95.70
2019-03-30T05:15:40.207Z,95.50
2019-03-30T05:18:19.900Z,94.77
2019-03-30T05:21:01.502Z,95.10
2019-03-30T05:23:28.556Z,93.33
2019-03-30T05:26:00.480Z,91.87
2019-03-30T05:28:33.555Z,92.05
2019-03-30T05:31:05.065Z,92.55
2019-03-30T05:33:50.421Z,90.53
2019-03-30T05:36:20.788Z,90.05
2019-03-30T05:38:55.280Z,91.92
2019-03-30T05:41:31.606Z,88.20
2019-03-30T05:44:13.768Z,90.53
2019-03-30T05:46:55.616Z,93.42
2019-03-30T05:49:24.317Z,94.22
2019-03-30T05:52:04.206Z,95.50
2019-03-30T05:54:44.190Z,93.35
2019-03-30T05:57:17.653Z,93.37
2019-03-30T05:59:56.712Z,97.12
2019-03-30T06:02:28.361Z,91.82
2019-03-30T06:05:11.731Z,91.50
2019-03-30T06:07:42.050Z,94.25
2019-03-30T06:10:13.856Z,94.65
2019-03-30T06:12:44.191Z,94.87
2019-03-30T06:15:16.285Z,92.22
2019-03-30T06:18:03.750Z,90.28
2019-03-30T06:23:53.088Z,86.82
2019-03-30T06:25:59.549Z,85.67
2019-03-30T06:28:29.834Z,83.40
2019-03-30T06:31:00.203Z,79.70
2019-03-30T06:33:30.476Z,75.95
2019-03-30T06:36:00.790Z,74.65
2019-03-30T06:38:31.045Z,73.05
2019-03-30T06:41:01.341Z,78.33
2019-03-30T06:43:32.122Z,73.78
2019-03-30T06:46:02.444Z,73.52
2019-03-30T06:48:35.854Z,71.70
2019-03-30T06:51:05.298Z,72.22
2019-03-30T06:53:35.451Z,72.27
2019-03-30T06:56:05.747Z,72.05
2019-03-30T06:58:36.020Z,69.03
2019-03-30T07:01:08.954Z,67.10
2019-03-30T07:03:39.566Z,65.83
2019-03-30T07:06:11.580Z,63.52
2019-03-30T07:08:46.171Z,63.13
2019-03-30T07:11:21.366Z,65.87
2019-03-30T07:16:20.226Z,62.03
2019-03-30T07:18:52.457Z,61.50
2019-03-30T07:21:22.764Z,61.77
2019-03-30T07:23:53.733Z,61.83
2019-03-30T07:26:24.024Z,59.70
2019-03-30T07:28:54.850Z,62.33
2019-03-30T07:31:25.210Z,59.93
2019-03-30T07:33:55.378Z,60.80
2019-03-30T07:36:25.632Z,59.18
2019-03-30T07:38:56.463Z,59.42
2019-03-30T07:41:26.763Z,57.58
2019-03-30T07:43:57.091Z,58.45
2019-03-30T07:46:27.279Z,56.77
2019-03-30T07:48:58.075Z,56.48
2019-03-30T07:51:28.421Z,54.95
2019-03-30T07:53:58.615Z,53.65
2019-03-30T07:56:29.253Z,55.40
2019-03-30T07:58:59.545Z,54.03
2019-03-30T08:01:29.898Z,52.85
2019-03-30T08:04:00.197Z,49.03
2019-03-30T08:06:30.635Z,52.48
2019-03-30T08:09:00.943Z,53.33
2019-03-30T08:11:31.655Z,52.55
2019-03-30T08:14:02.351Z,51.50
2019-03-30T08:16:32.645Z,53.28
2019-03-30T08:19:02.975Z,53.78
2019-03-30T08:21:33.327Z,51.10
2019-03-30T08:24:03.646Z,50.98
2019-03-30T08:26:35.726Z,48.17
2019-03-30T08:29:06.170Z,48.58
2019-03-30T08:31:37.351Z,47.17
2019-03-30T08:34:07.576Z,43.90
2019-03-30T08:36:39.873Z,44.20
2019-03-30T08:39:10.350Z,46.10
2019-03-30T08:41:40.652Z,44.42
2019-03-30T08:44:10.912Z,41.15
2019-03-30T08:46:41.192Z,38.83
2019-03-30T08:49:11.565Z,38.05
2019-03-30T08:51:41.756Z,37.58
2019-03-30T08:54:12.759Z,41.95
2019-03-30T08:56:43.017Z,42.90
2019-03-30T08:59:13.633Z,41.00
2019-03-30T09:01:43.912Z,37.48
2019-03-30T09:04:14.264Z,37.67
2019-03-30T09:06:44.546Z,40.05
2019-03-30T09:09:14.843Z,40.85
2019-03-30T09:11:45.449Z,35.75
2019-03-30T09:14:15.765Z,33.90
2019-03-30T09:16:47.741Z,36.23
2019-03-30T09:19:18.568Z,36.25
2019-03-30T09:21:48.781Z,33.88
2019-03-30T09:24:19.616Z,32.85
2019-03-30T09:26:49.822Z,31.82
2019-03-30T09:29:20.225Z,32.80
2019-03-30T09:31:50.403Z,33.98
2019-03-30T09:34:20.633Z,33.88
2019-03-30T09:36:50.983Z,28.98
2019-03-30T09:39:21.403Z,28.30
2019-03-30T09:41:52.224Z,28.10
2019-03-30T09:44:22.562Z,23.22
2019-03-30T09:46:52.752Z,19.45
2019-03-30T09:49:23.454Z,20.23
2019-03-30T09:51:53.750Z,20.77
2019-03-30T09:54:24.332Z,21.15
2019-03-30T09:56:55.294Z,22.93
2019-03-30T09:59:25.568Z,24.75
2019-03-30T10:01:56.562Z,26.17
2019-03-30T10:04:26.875Z,27.13
2019-03-30T10:06:57.768Z,27.02
2019-03-30T10:09:28.087Z,26.42
2019-03-30T10:11:58.362Z,26.65
2019-03-30T10:14:28.719Z,27.95
2019-03-30T10:16:58.976Z,27.15
2019-03-30T10:19:29.288Z,28.02
2019-03-30T10:22:00.487Z,27.95
2019-03-30T10:24:38.459Z,27.50
2019-03-30T10:27:05.517Z,27.25
2019-03-30T10:29:35.804Z,27.65
2019-03-30T10:32:06.117Z,27.62
2019-03-30T10:34:39.398Z,27.73
2019-03-30T10:37:08.862Z,27.95
2019-03-30T10:39:39.614Z,28.95
2019-03-30T10:42:09.889Z,27.87
2019-03-30T10:44:40.187Z,29.87
2019-03-30T10:47:11.231Z,27.65
2019-03-30T10:49:41.591Z,28.20
2019-03-30T10:52:11.823Z,28.83
2019-03-30T10:54:52.554Z,28.77
2019-03-30T10:57:15.040Z,28.02
2019-03-30T10:59:50.118Z,26.77
2019-03-30T11:02:20.607Z,26.52
2019-03-30T11:04:50.841Z,26.70
2019-03-30T11:07:23.818Z,28.42
2019-03-30T11:09:54.104Z,29.48
2019-03-30T11:12:24.394Z,30.72
2019-03-30T11:14:54.704Z,28.40
2019-03-30T11:17:25.015Z,27.58
2019-03-30T11:19:56.083Z,29.52
2019-03-30T11:22:26.471Z,28.02
2019-03-30T11:25:07.522Z,27.35
2019-03-30T11:27:31.263Z,29.18
2019-03-30T11:30:01.663Z,28.32
2019-03-30T11:32:31.955Z,28.02
2019-03-30T11:35:04.946Z,29.77
2019-03-30T11:37:35.194Z,27.70
2019-03-30T11:40:08.655Z,26.85
2019-03-30T11:42:41.977Z,26.60
2019-03-30T11:45:12.390Z,29.57
2019-03-30T11:47:42.679Z,27.50
2019-03-30T11:50:13.541Z,29.50
2019-03-30T11:52:43.865Z,28.30
2019-03-30T11:55:21.667Z,27.40
2019-03-30T11:57:46.611Z,29.82
2019-03-30T12:00:16.797Z,27.87
2019-03-30T12:02:47.135Z,27.25
2019-03-30T12:05:18.023Z,27.60
2019-03-30T12:07:50.027Z,26.33
2019-03-30T12:10:21.106Z,26.27
2019-03-30T12:12:51.482Z,26.48
2019-03-30T12:15:22.733Z,25.32
2019-03-30T12:17:53.420Z,26.02
2019-03-30T12:20:23.830Z,26.00
2019-03-30T12:22:54.167Z,25.68
2019-03-30T12:25:34.811Z,24.80
2019-03-30T12:27:56.396Z,24.65
2019-03-30T12:30:26.786Z,24.43
2019-03-30T12:32:57.091Z,22.37
2019-03-30T12:35:27.384Z,22.05
2019-03-30T12:37:58.609Z,21.80
2019-03-30T12:40:28.925Z,23.52
2019-03-30T12:42:59.232Z,23.60
2019-03-30T12:45:29.538Z,24.65
2019-03-30T12:47:59.847Z,23.83
2019-03-30T12:50:30.163Z,22.67
2019-03-30T12:53:03.627Z,21.23
2019-03-30T12:55:33.933Z,22.15
2019-03-30T12:58:04.120Z,23.73
2019-03-30T13:00:34.762Z,20.45
2019-03-30T13:03:05.057Z,19.30
2019-03-30T13:05:35.356Z,20.27
2019-03-30T13:08:06.208Z,19.25
2019-03-30T13:10:36.532Z,18.35
2019-03-30T13:13:07.336Z,18.67
2019-03-30T13:15:37.648Z,18.32
2019-03-30T13:18:09.458Z,17.85
2019-03-30T13:20:40.264Z,18.90
2019-03-30T13:23:10.530Z,18.02
2019-03-30T13:25:41.204Z,18.65
2019-03-30T13:28:11.497Z,17.65
2019-03-30T13:30:41.687Z,17.67
2019-03-30T13:33:12.673Z,17.87
2019-03-30T13:35:42.975Z,16.65
2019-03-30T13:38:13.249Z,17.17
2019-03-30T13:40:44.165Z,15.78
2019-03-30T13:43:14.410Z,16.20
2019-03-30T13:45:44.796Z,16.73
2019-03-30T13:48:15.123Z,17.57
2019-03-30T13:50:45.547Z,18.00
2019-03-30T13:53:15.852Z,16.12
2019-03-30T13:55:46.211Z,16.95
2019-03-30T13:58:16.543Z,17.17
2019-03-30T14:00:47.049Z,15.53
2019-03-30T14:03:18.871Z,14.75
2019-03-30T14:05:49.244Z,14.05
2019-03-30T14:08:19.539Z,16.02
2019-03-30T14:10:50.317Z,16.97
2019-03-30T14:13:21.629Z,17.07
2019-03-30T14:15:52.644Z,17.52
2019-03-30T14:18:22.960Z,17.57
2019-03-30T14:20:53.185Z,16.85
2019-03-30T14:23:23.953Z,17.95
2019-03-30T14:25:54.243Z,17.52
2019-03-30T14:28:24.579Z,16.62
2019-03-30T14:30:54.866Z,19.23
2019-03-30T14:33:25.152Z,17.70
2019-03-30T14:35:55.991Z,17.02
2019-03-30T14:38:26.326Z,16.27
2019-03-30T14:40:56.624Z,16.12
2019-03-30T14:43:26.966Z,18.40
2019-03-30T14:45:57.262Z,17.27
2019-03-30T14:48:28.602Z,17.37
2019-03-30T14:50:58.933Z,17.87
2019-03-30T14:53:29.145Z,17.12
2019-03-30T14:55:59.472Z,17.05
2019-03-30T14:58:29.827Z,17.57
2019-03-30T15:01:03.089Z,18.35
2019-03-30T15:03:32.254Z,17.70
2019-03-30T15:06:02.695Z,19.40
2019-03-30T15:08:33.196Z,18.75
2019-03-30T15:11:04.623Z,18.70
2019-03-30T15:13:34.849Z,20.40
2019-03-30T15:16:05.683Z,19.17
2019-03-30T15:18:36.025Z,20.02
2019-03-30T15:21:08.491Z,19.80
2019-03-30T15:23:38.501Z,18.85
2019-03-30T15:26:08.694Z,19.55
2019-03-30T15:28:42.557Z,20.57
2019-03-30T15:31:11.058Z,21.45
2019-03-30T15:33:41.722Z,21.02
2019-03-30T15:36:11.936Z,21.42
2019-03-30T15:38:48.519Z,21.60
2019-03-30T15:41:18.845Z,21.75
2019-03-30T15:43:51.958Z,21.55
2019-03-30T15:46:21.141Z,22.32
2019-03-30T15:48:51.439Z,21.00
2019-03-30T15:51:21.711Z,22.00
2019-03-30T15:53:52.153Z,21.48
2019-03-30T15:56:22.619Z,21.80
2019-03-30T15:58:52.993Z,22.32
2019-03-30T16:01:23.554Z,22.45
2019-03-30T16:03:54.083Z,19.82
2019-03-30T16:06:24.599Z,20.40
2019-03-30T16:08:54.951Z,20.92
2019-03-30T16:11:25.250Z,20.77
2019-03-30T16:13:55.547Z,22.32
2019-03-30T16:16:26.254Z,23.52
2019-03-30T16:18:56.569Z,22.87
2019-03-30T16:21:27.059Z,22.85
2019-03-30T16:23:57.331Z,23.18
2019-03-30T16:26:41.441Z,22.02
2019-03-30T16:28:59.562Z,22.27
2019-03-30T16:31:30.386Z,23.87
2019-03-30T16:34:00.763Z,24.50
2019-03-30T16:36:31.057Z,23.30
2019-03-30T16:39:01.354Z,25.57
2019-03-30T16:41:33.171Z,25.25
2019-03-30T16:44:03.440Z,24.92
2019-03-30T16:46:33.828Z,25.05
2019-03-30T16:49:04.332Z,25.23
2019-03-30T16:51:34.655Z,26.40
2019-03-30T16:54:05.230Z,24.77
2019-03-30T16:56:36.012Z,25.43
2019-03-30T16:59:06.307Z,26.65
2019-03-30T17:01:36.636Z,25.95
2019-03-30T17:04:07.999Z,26.48
2019-03-30T17:06:38.400Z,26.10
2019-03-30T17:09:08.799Z,28.52
2019-03-30T17:11:39.171Z,28.12
2019-03-30T17:14:09.435Z,29.60
2019-03-30T17:16:40.192Z,28.60
2019-03-30T17:19:10.531Z,29.15
2019-03-30T17:21:40.760Z,30.02
2019-03-30T17:24:11.057Z,33.20
2019-03-30T17:26:42.203Z,31.35
2019-03-30T17:29:13.571Z,30.65
2019-03-30T17:31:45.031Z,29.57
2019-03-30T17:34:16.420Z,29.92
2019-03-30T17:36:46.695Z,29.00
2019-03-30T17:39:17.256Z,30.17
2019-03-30T17:41:47.524Z,28.23
2019-03-30T17:44:17.849Z,28.87
2019-03-30T17:46:48.113Z,25.82
2019-03-30T17:49:18.385Z,26.50
2019-03-30T17:51:48.673Z,25.12
2019-03-30T17:54:18.977Z,23.90
2019-03-30T17:56:49.647Z,23.83
2019-03-30T17:59:23.482Z,23.95
2019-03-30T18:01:51.860Z,23.98
2019-03-30T18:04:22.170Z,24.02
2019-03-30T18:06:52.744Z,22.77
2019-03-30T18:09:23.049Z,25.10
2019-03-30T18:11:53.322Z,25.30
2019-03-30T18:14:23.627Z,29.20
2019-03-30T18:16:53.825Z,33.53
2019-03-30T18:19:24.165Z,42.00
2019-03-30T18:21:54.392Z,51.28
2019-03-30T18:24:24.662Z,54.38
2019-03-30T18:26:54.960Z,45.70
2019-03-30T18:29:25.253Z,40.78
2019-03-30T18:31:55.578Z,37.35
2019-03-30T18:34:26.528Z,35.75
2019-03-30T18:36:57.096Z,32.58
2019-03-30T18:39:27.666Z,29.95
2019-03-30T18:41:57.958Z,30.70
2019-03-30T18:44:28.970Z,33.80
2019-03-30T18:46:59.267Z,43.45
2019-03-30T18:49:29.524Z,45.05
2019-03-30T18:52:00.137Z,43.70
2019-03-30T18:54:31.279Z,31.80
2019-03-30T18:57:01.575Z,28.47
2019-03-30T18:59:31.847Z,26.57
2019-03-30T19:02:02.092Z,27.25
2019-03-30T19:04:32.361Z,24.50
2019-03-30T19:07:02.595Z,25.08
2019-03-30T19:09:32.965Z,24.90
2019-03-30T19:12:03.795Z,25.15
2019-03-30T19:14:34.243Z,24.67
2019-03-30T19:17:04.653Z,24.63
2019-03-30T19:19:34.939Z,24.25
2019-03-30T19:22:05.271Z,25.75
2019-03-30T19:24:35.539Z,25.43
2019-03-30T19:27:05.871Z,27.05
2019-03-30T19:29:36.143Z,26.33
2019-03-30T19:32:06.457Z,27.05
2019-03-30T19:34:36.738Z,26.85
2019-03-30T19:37:07.091Z,26.87
2019-03-30T19:39:37.265Z,27.98
2019-03-30T19:42:07.527Z,28.45
2019-03-30T19:44:37.823Z,29.82
2019-03-30T19:47:08.333Z,28.75
2019-03-30T19:49:38.610Z,29.05
2019-03-30T19:52:09.024Z,30.30
2019-03-30T19:54:39.219Z,29.42
2019-03-30T19:57:09.651Z,29.20
2019-03-30T19:59:39.894Z,29.82
2019-03-30T20:02:10.683Z,30.10
2019-03-30T20:04:40.960Z,30.75
2019-03-30T20:07:12.284Z,31.75
2019-03-30T20:09:42.555Z,31.48
2019-03-30T20:12:13.024Z,32.28
2019-03-30T20:14:47.732Z,33.95
2019-03-30T20:17:18.073Z,31.57
2019-03-30T20:19:48.360Z,30.52
2019-03-30T20:22:18.682Z,31.17
2019-03-30T20:24:49.118Z,30.23
2019-03-30T20:27:19.469Z,29.87
2019-03-30T20:29:51.025Z,30.65
2019-03-30T20:32:21.351Z,31.65
2019-03-30T20:34:54.403Z,31.87
2019-03-30T20:37:28.591Z,32.75
2019-03-30T20:39:59.150Z,33.30
2019-03-30T20:42:30.910Z,33.33
2019-03-30T20:45:01.187Z,35.28
2019-03-30T20:47:31.670Z,34.63
2019-03-30T20:50:04.007Z,33.10
2019-03-30T20:52:34.413Z,36.40
2019-03-30T20:55:06.949Z,35.00
2019-03-30T20:57:37.955Z,36.13
2019-03-30T21:00:10.522Z,38.13
2019-03-30T21:02:40.861Z,38.42
2019-03-30T21:05:11.379Z,39.18
2019-03-30T21:07:41.979Z,37.55
2019-03-30T21:10:12.650Z,37.28
2019-03-30T21:12:43.094Z,35.92
2019-03-30T21:15:15.099Z,36.58
2019-03-30T21:17:46.891Z,36.65
2019-03-30T21:20:17.324Z,38.88
2019-03-30T21:22:49.275Z,39.27
2019-03-30T21:25:19.680Z,39.70
2019-03-30T21:27:50.149Z,39.67
2019-03-30T21:30:20.420Z,38.80
2019-03-30T21:33:00.288Z,39.05
2019-03-30T21:35:30.650Z,40.55
2019-03-30T21:38:02.151Z,39.95
2019-03-30T21:40:32.455Z,38.42
2019-03-30T21:43:02.856Z,39.45
2019-03-30T21:45:33.178Z,39.80
2019-03-30T21:48:03.456Z,40.20
2019-03-30T21:50:33.912Z,40.90
2019-03-30T21:53:04.316Z,41.37
2019-03-30T21:55:34.810Z,44.30
2019-03-30T21:58:05.092Z,44.35
2019-03-30T22:00:37.692Z,42.85
2019-03-30T22:03:08.153Z,42.30
2019-03-30T22:05:38.521Z,42.53
2019-03-30T22:08:10.021Z,41.88
2019-03-30T22:10:40.585Z,42.00
2019-03-30T22:13:10.941Z,42.23
2019-03-30T22:15:41.556Z,40.17
2019-03-30T22:18:20.767Z,41.48
2019-03-30T22:20:54.089Z,41.18
2019-03-30T22:23:24.398Z,40.43
2019-03-30T22:25:54.783Z,41.70
2019-03-30T22:28:25.063Z,41.70
2019-03-30T22:30:55.499Z,41.15
2019-03-30T22:33:25.784Z,41.02
2019-03-30T22:35:56.153Z,40.88
2019-03-30T22:38:26.421Z,42.65
2019-03-30T22:40:56.775Z,43.95
2019-03-30T22:43:27.074Z,42.17
2019-03-30T22:45:57.431Z,43.87
2019-03-30T22:48:27.683Z,46.60
2019-03-30T22:50:58.199Z,47.33
2019-03-30T22:53:38.899Z,46.77
2019-03-30T22:56:09.264Z,45.05
2019-03-30T22:58:39.530Z,46.53
2019-03-30T23:01:12.751Z,45.73
2019-03-30T23:03:45.171Z,43.33
2019-03-30T23:06:15.523Z,42.90
2019-03-30T23:08:45.911Z,43.52
2019-03-30T23:11:16.270Z,43.00
2019-03-30T23:13:46.555Z,42.50
2019-03-30T23:16:16.968Z,45.83
2019-03-30T23:18:47.244Z,45.75
2019-03-30T23:21:17.637Z,46.63
2019-03-30T23:23:47.927Z,45.40
2019-03-30T23:26:22.440Z,45.48
2019-03-30T23:28:52.732Z,44.55
2019-03-30T23:31:29.820Z,42.73
2019-03-30T23:34:01.418Z,41.55
2019-03-30T23:36:31.859Z,41.63
2019-03-30T23:39:08.952Z,43.98
2019-03-30T23:41:39.320Z,42.85
2019-03-30T23:44:09.621Z,41.83
2019-03-30T23:46:39.924Z,40.05
2019-03-30T23:49:10.244Z,39.18
2019-03-30T23:51:40.521Z,39.85
2019-03-30T23:54:15.786Z,39.53
2019-03-30T23:56:46.057Z,39.00
2019-03-30T23:59:16.395Z,38.65
